sensor_id;sensor_type;location;lat;lon;timestamp;temperature;humidity
1592;DHT22;789;51.612;7.510;2022-12-29T00:01:38;10.70;1.00
1592;DHT22;789;51.612;7.510;2022-12-29T00:04:05;10.70;1.00
1592;DHT22;789;51.612;7.510;2022-12-29T00:06:32;10.80;1.00
1592;DHT22;789;51.612;7.510;2022-12-29T00:08:59;10.80;1.00
1592;DHT22;789;51.612;7.510;2022-12-29T00:11:27;10.80;1.00
1592;DHT22;789;51.612;7.510;2022-12-29T00:13:54;10.80;1.00
1592;DHT22;789;51.612;7.510;2022-12-29T00:16:43;10.80;1.00
1592;DHT22;789;51.612;7.510;2022-12-29T00:19:11;10.90;1.00
1592;DHT22;789;51.612;7.510;2022-12-29T00:21:52;10.90;1.00
1592;DHT22;789;51.612;7.510;2022-12-29T00:24:36;11.00;1.00
1592;DHT22;789;51.612;7.510;2022-12-29T00:27:22;11.00;1.00
1592;DHT22;789;51.612;7.510;2022-12-29T00:30:11;11.00;1.00
1592;DHT22;789;51.612;7.510;2022-12-29T00:32:56;11.10;1.00
1592;DHT22;789;51.612;7.510;2022-12-29T00:35:45;11.10;1.00
1592;DHT22;789;51.612;7.510;2022-12-29T00:38:15;11.10;1.00
1592;DHT22;789;51.612;7.510;2022-12-29T00:40:59;11.10;1.00
1592;DHT22;789;51.612;7.510;2022-12-29T00:43:44;11.20;1.00
1592;DHT22;789;51.612;7.510;2022-12-29T00:46:28;11.20;1.00
1592;DHT22;789;51.612;7.510;2022-12-29T00:48:55;11.20;1.00
1592;DHT22;789;51.612;7.510;2022-12-29T00:51:40;11.20;1.00
1592;DHT22;789;51.612;7.510;2022-12-29T00:54:06;11.20;1.00
1592;DHT22;789;51.612;7.510;2022-12-29T00:56:33;11.20;1.00
1592;DHT22;789;51.612;7.510;2022-12-29T00:59:03;11.20;1.00
1592;DHT22;789;51.612;7.510;2022-12-29T01:01:30;11.20;1.00
1592;DHT22;789;51.612;7.510;2022-12-29T01:03:59;11.10;1.00
1592;DHT22;789;51.612;7.510;2022-12-29T01:06:30;11.10;1.00
1592;DHT22;789;51.612;7.510;2022-12-29T01:09:00;11.10;1.00
1592;DHT22;789;51.612;7.510;2022-12-29T01:11:44;11.20;1.00
1592;DHT22;789;51.612;7.510;2022-12-29T01:14:13;11.10;1.00
1592;DHT22;789;51.612;7.510;2022-12-29T01:16:40;11.10;1.00
1592;DHT22;789;51.612;7.510;2022-12-29T01:19:07;11.20;1.00
1592;DHT22;789;51.612;7.510;2022-12-29T01:21:34;11.20;1.00
1592;DHT22;789;51.612;7.510;2022-12-29T01:24:01;11.20;1.00
1592;DHT22;789;51.612;7.510;2022-12-29T01:26:28;11.20;1.00
1592;DHT22;789;51.612;7.510;2022-12-29T01:28:58;11.20;1.00
1592;DHT22;789;51.612;7.510;2022-12-29T01:31:26;11.10;1.00
1592;DHT22;789;51.612;7.510;2022-12-29T01:33:52;11.10;1.00
1592;DHT22;789;51.612;7.510;2022-12-29T01:36:19;11.10;1.00
1592;DHT22;789;51.612;7.510;2022-12-29T01:38:46;11.10;1.00
1592;DHT22;789;51.612;7.510;2022-12-29T01:41:14;11.10;1.00
1592;DHT22;789;51.612;7.510;2022-12-29T01:43:43;11.10;1.00
1592;DHT22;789;51.612;7.510;2022-12-29T01:46:19;11.10;1.00
1592;DHT22;789;51.612;7.510;2022-12-29T01:48:48;11.10;1.00
1592;DHT22;789;51.612;7.510;2022-12-29T01:51:17;11.20;1.00
1592;DHT22;789;51.612;7.510;2022-12-29T01:53:45;11.20;1.00
1592;DHT22;789;51.612;7.510;2022-12-29T01:56:15;11.20;1.00
1592;DHT22;789;51.612;7.510;2022-12-29T01:58:45;11.20;1.00
1592;DHT22;789;51.612;7.510;2022-12-29T02:01:13;11.30;1.00
1592;DHT22;789;51.612;7.510;2022-12-29T02:03:41;11.30;1.00
1592;DHT22;789;51.612;7.510;2022-12-29T02:06:12;11.30;1.00
1592;DHT22;789;51.612;7.510;2022-12-29T02:08:41;11.30;1.00
1592;DHT22;789;51.612;7.510;2022-12-29T02:11:07;11.30;1.00
1592;DHT22;789;51.612;7.510;2022-12-29T02:13:34;11.30;1.00
1592;DHT22;789;51.612;7.510;2022-12-29T02:16:08;11.40;1.00
1592;DHT22;789;51.612;7.510;2022-12-29T02:18:44;11.40;1.00
1592;DHT22;789;51.612;7.510;2022-12-29T02:21:51;11.50;1.00
1592;DHT22;789;51.612;7.510;2022-12-29T02:24:52;11.50;1.00
1592;DHT22;789;51.612;7.510;2022-12-29T02:27:43;11.50;1.00
1592;DHT22;789;51.612;7.510;2022-12-29T02:30:39;11.50;1.00
1592;DHT22;789;51.612;7.510;2022-12-29T02:33:15;11.60;1.00
1592;DHT22;789;51.612;7.510;2022-12-29T02:35:52;11.60;1.00
1592;DHT22;789;51.612;7.510;2022-12-29T02:38:41;11.60;1.00
1592;DHT22;789;51.612;7.510;2022-12-29T02:41:16;11.60;1.00
1592;DHT22;789;51.612;7.510;2022-12-29T02:43:50;11.60;1.00
1592;DHT22;789;51.612;7.510;2022-12-29T02:46:24;11.60;1.00
1592;DHT22;789;51.612;7.510;2022-12-29T02:48:59;11.60;1.00
1592;DHT22;789;51.612;7.510;2022-12-29T02:51:34;11.70;1.00
1592;DHT22;789;51.612;7.510;2022-12-29T02:54:02;11.70;1.00
1592;DHT22;789;51.612;7.510;2022-12-29T02:56:47;11.70;1.00
1592;DHT22;789;51.612;7.510;2022-12-29T02:59:14;11.70;1.00
1592;DHT22;789;51.612;7.510;2022-12-29T03:01:57;11.70;1.00
1592;DHT22;789;51.612;7.510;2022-12-29T03:07:40;11.80;1.00
1592;DHT22;789;51.612;7.510;2022-12-29T03:10:17;11.80;1.00
1592;DHT22;789;51.612;7.510;2022-12-29T03:12:48;11.80;1.00
1592;DHT22;789;51.612;7.510;2022-12-29T03:15:42;11.80;1.00
1592;DHT22;789;51.612;7.510;2022-12-29T03:18:34;11.80;1.00
1592;DHT22;789;51.612;7.510;2022-12-29T03:21:08;11.80;1.00
1592;DHT22;789;51.612;7.510;2022-12-29T03:23:36;11.80;1.00
1592;DHT22;789;51.612;7.510;2022-12-29T03:26:08;11.80;1.00
1592;DHT22;789;51.612;7.510;2022-12-29T03:28:37;11.90;1.00
1592;DHT22;789;51.612;7.510;2022-12-29T03:31:07;11.90;1.00
1592;DHT22;789;51.612;7.510;2022-12-29T03:33:37;11.90;1.00
1592;DHT22;789;51.612;7.510;2022-12-29T03:36:08;11.90;1.00
1592;DHT22;789;51.612;7.510;2022-12-29T03:38:46;11.90;1.00
1592;DHT22;789;51.612;7.510;2022-12-29T03:41:17;11.90;1.00
1592;DHT22;789;51.612;7.510;2022-12-29T03:43:46;11.90;1.00
1592;DHT22;789;51.612;7.510;2022-12-29T03:46:13;12.00;1.00
1592;DHT22;789;51.612;7.510;2022-12-29T03:48:41;12.00;1.00
1592;DHT22;789;51.612;7.510;2022-12-29T03:51:07;12.00;1.00
1592;DHT22;789;51.612;7.510;2022-12-29T03:53:34;12.00;1.00
1592;DHT22;789;51.612;7.510;2022-12-29T03:56:01;12.00;1.00
1592;DHT22;789;51.612;7.510;2022-12-29T03:58:28;12.00;1.00
1592;DHT22;789;51.612;7.510;2022-12-29T04:00:54;12.00;1.00
1592;DHT22;789;51.612;7.510;2022-12-29T04:03:21;12.00;1.00
1592;DHT22;789;51.612;7.510;2022-12-29T04:05:49;12.00;1.00
1592;DHT22;789;51.612;7.510;2022-12-29T04:08:16;11.90;1.00
1592;DHT22;789;51.612;7.510;2022-12-29T04:10:42;11.80;1.00
1592;DHT22;789;51.612;7.510;2022-12-29T04:13:09;11.60;1.00
1592;DHT22;789;51.612;7.510;2022-12-29T04:15:36;11.40;1.00
1592;DHT22;789;51.612;7.510;2022-12-29T04:18:03;11.30;1.00
1592;DHT22;789;51.612;7.510;2022-12-29T04:20:29;11.20;1.00
1592;DHT22;789;51.612;7.510;2022-12-29T04:23:15;11.20;1.00
1592;DHT22;789;51.612;7.510;2022-12-29T04:25:45;11.10;1.00
1592;DHT22;789;51.612;7.510;2022-12-29T04:28:12;11.00;1.00
1592;DHT22;789;51.612;7.510;2022-12-29T04:30:38;10.90;1.00
1592;DHT22;789;51.612;7.510;2022-12-29T04:33:05;10.90;1.00
1592;DHT22;789;51.612;7.510;2022-12-29T04:35:32;10.90;1.00
1592;DHT22;789;51.612;7.510;2022-12-29T04:37:58;10.90;1.00
1592;DHT22;789;51.612;7.510;2022-12-29T04:40:26;10.90;1.00
1592;DHT22;789;51.612;7.510;2022-12-29T04:42:53;10.90;1.00
1592;DHT22;789;51.612;7.510;2022-12-29T04:45:20;11.00;1.00
1592;DHT22;789;51.612;7.510;2022-12-29T04:47:47;10.90;1.00
1592;DHT22;789;51.612;7.510;2022-12-29T04:50:13;11.00;1.00
1592;DHT22;789;51.612;7.510;2022-12-29T04:52:40;11.10;1.00
1592;DHT22;789;51.612;7.510;2022-12-29T04:55:07;11.10;1.00
1592;DHT22;789;51.612;7.510;2022-12-29T04:57:35;11.20;1.00
1592;DHT22;789;51.612;7.510;2022-12-29T05:00:03;11.20;1.00
1592;DHT22;789;51.612;7.510;2022-12-29T05:02:30;11.30;1.00
1592;DHT22;789;51.612;7.510;2022-12-29T05:04:57;11.70;1.00
1592;DHT22;789;51.612;7.510;2022-12-29T05:07:23;11.50;1.00
1592;DHT22;789;51.612;7.510;2022-12-29T05:09:50;11.50;1.00
1592;DHT22;789;51.612;7.510;2022-12-29T05:12:17;11.60;1.00
1592;DHT22;789;51.612;7.510;2022-12-29T05:14:45;11.70;1.00
1592;DHT22;789;51.612;7.510;2022-12-29T05:17:12;11.70;1.00
1592;DHT22;789;51.612;7.510;2022-12-29T05:19:38;11.80;1.00
1592;DHT22;789;51.612;7.510;2022-12-29T05:22:05;11.80;1.00
1592;DHT22;789;51.612;7.510;2022-12-29T05:24:32;11.90;1.00
1592;DHT22;789;51.612;7.510;2022-12-29T05:26:58;12.00;1.00
1592;DHT22;789;51.612;7.510;2022-12-29T05:29:25;12.00;1.00
1592;DHT22;789;51.612;7.510;2022-12-29T05:31:53;12.10;1.00
1592;DHT22;789;51.612;7.510;2022-12-29T05:34:20;12.20;1.00
1592;DHT22;789;51.612;7.510;2022-12-29T05:36:46;12.20;1.00
1592;DHT22;789;51.612;7.510;2022-12-29T05:39:13;12.20;1.00
1592;DHT22;789;51.612;7.510;2022-12-29T05:41:40;12.40;1.00
1592;DHT22;789;51.612;7.510;2022-12-29T05:44:06;12.30;1.00
1592;DHT22;789;51.612;7.510;2022-12-29T05:46:33;12.30;1.00
1592;DHT22;789;51.612;7.510;2022-12-29T05:49:01;12.40;1.00
1592;DHT22;789;51.612;7.510;2022-12-29T05:51:28;12.40;1.00
1592;DHT22;789;51.612;7.510;2022-12-29T05:53:55;12.40;1.00
1592;DHT22;789;51.612;7.510;2022-12-29T05:56:21;12.40;1.00
1592;DHT22;789;51.612;7.510;2022-12-29T05:58:48;12.50;1.00
1592;DHT22;789;51.612;7.510;2022-12-29T06:01:15;12.50;1.00
1592;DHT22;789;51.612;7.510;2022-12-29T06:03:42;12.50;1.00
1592;DHT22;789;51.612;7.510;2022-12-29T06:06:10;12.50;1.00
1592;DHT22;789;51.612;7.510;2022-12-29T06:08:37;12.50;1.00
1592;DHT22;789;51.612;7.510;2022-12-29T06:11:04;12.50;1.00
1592;DHT22;789;51.612;7.510;2022-12-29T06:13:30;12.50;1.00
1592;DHT22;789;51.612;7.510;2022-12-29T06:15:57;12.60;1.00
1592;DHT22;789;51.612;7.510;2022-12-29T06:18:24;12.50;1.00
1592;DHT22;789;51.612;7.510;2022-12-29T06:20:50;12.50;1.00
1592;DHT22;789;51.612;7.510;2022-12-29T06:23:18;12.50;1.00
1592;DHT22;789;51.612;7.510;2022-12-29T06:25:47;12.50;1.00
1592;DHT22;789;51.612;7.510;2022-12-29T06:28:14;12.40;1.00
1592;DHT22;789;51.612;7.510;2022-12-29T06:30:43;12.40;1.00
1592;DHT22;789;51.612;7.510;2022-12-29T06:33:09;12.40;1.00
1592;DHT22;789;51.612;7.510;2022-12-29T06:35:36;12.40;1.00
1592;DHT22;789;51.612;7.510;2022-12-29T06:38:03;12.40;1.00
1592;DHT22;789;51.612;7.510;2022-12-29T06:40:32;12.30;1.00
1592;DHT22;789;51.612;7.510;2022-12-29T06:42:59;12.30;1.00
1592;DHT22;789;51.612;7.510;2022-12-29T06:45:25;12.30;1.00
1592;DHT22;789;51.612;7.510;2022-12-29T06:47:52;12.30;1.00
1592;DHT22;789;51.612;7.510;2022-12-29T06:50:19;12.30;1.00
1592;DHT22;789;51.612;7.510;2022-12-29T06:52:45;12.30;1.00
1592;DHT22;789;51.612;7.510;2022-12-29T06:55:12;12.30;1.00
1592;DHT22;789;51.612;7.510;2022-12-29T06:57:40;12.30;1.00
1592;DHT22;789;51.612;7.510;2022-12-29T07:00:08;12.30;1.00
1592;DHT22;789;51.612;7.510;2022-12-29T07:02:35;12.40;1.00
1592;DHT22;789;51.612;7.510;2022-12-29T07:05:02;12.30;1.00
1592;DHT22;789;51.612;7.510;2022-12-29T07:07:28;12.30;1.00
1592;DHT22;789;51.612;7.510;2022-12-29T07:09:55;12.30;1.00
1592;DHT22;789;51.612;7.510;2022-12-29T07:12:21;12.30;1.00
1592;DHT22;789;51.612;7.510;2022-12-29T07:14:49;12.30;1.00
1592;DHT22;789;51.612;7.510;2022-12-29T07:17:16;12.30;1.00
1592;DHT22;789;51.612;7.510;2022-12-29T07:19:43;12.30;1.00
1592;DHT22;789;51.612;7.510;2022-12-29T07:22:10;12.30;1.00
1592;DHT22;789;51.612;7.510;2022-12-29T07:24:37;12.20;1.00
1592;DHT22;789;51.612;7.510;2022-12-29T07:27:04;12.30;1.00
1592;DHT22;789;51.612;7.510;2022-12-29T07:29:31;12.30;1.00
1592;DHT22;789;51.612;7.510;2022-12-29T07:32:02;12.30;1.00
1592;DHT22;789;51.612;7.510;2022-12-29T07:34:28;12.40;1.00
1592;DHT22;789;51.612;7.510;2022-12-29T07:36:55;12.30;1.00
1592;DHT22;789;51.612;7.510;2022-12-29T07:39:22;12.30;1.00
1592;DHT22;789;51.612;7.510;2022-12-29T07:41:49;12.30;1.00
1592;DHT22;789;51.612;7.510;2022-12-29T07:44:15;12.30;1.00
1592;DHT22;789;51.612;7.510;2022-12-29T07:46:42;12.20;1.00
1592;DHT22;789;51.612;7.510;2022-12-29T07:49:10;12.20;1.00
1592;DHT22;789;51.612;7.510;2022-12-29T07:51:37;12.30;1.00
1592;DHT22;789;51.612;7.510;2022-12-29T07:54:04;12.20;1.00
1592;DHT22;789;51.612;7.510;2022-12-29T07:56:30;12.20;1.00
1592;DHT22;789;51.612;7.510;2022-12-29T07:58:57;12.20;1.00
1592;DHT22;789;51.612;7.510;2022-12-29T08:01:24;12.10;1.00
1592;DHT22;789;51.612;7.510;2022-12-29T08:03:50;12.10;1.00
1592;DHT22;789;51.612;7.510;2022-12-29T08:06:18;12.10;1.00
1592;DHT22;789;51.612;7.510;2022-12-29T08:08:45;12.10;1.00
1592;DHT22;789;51.612;7.510;2022-12-29T08:11:12;12.20;1.00
1592;DHT22;789;51.612;7.510;2022-12-29T08:13:39;12.10;1.00
1592;DHT22;789;51.612;7.510;2022-12-29T08:16:06;12.10;1.00
1592;DHT22;789;51.612;7.510;2022-12-29T08:18:32;12.20;1.00
1592;DHT22;789;51.612;7.510;2022-12-29T08:21:01;12.20;1.00
1592;DHT22;789;51.612;7.510;2022-12-29T08:23:30;12.20;1.00
1592;DHT22;789;51.612;7.510;2022-12-29T08:25:57;12.20;1.00
1592;DHT22;789;51.612;7.510;2022-12-29T08:28:24;12.20;1.00
1592;DHT22;789;51.612;7.510;2022-12-29T08:30:51;12.20;1.00
1592;DHT22;789;51.612;7.510;2022-12-29T08:33:18;12.20;1.00
1592;DHT22;789;51.612;7.510;2022-12-29T08:35:45;12.10;1.00
1592;DHT22;789;51.612;7.510;2022-12-29T08:38:11;12.20;1.00
1592;DHT22;789;51.612;7.510;2022-12-29T08:40:40;12.20;1.00
1592;DHT22;789;51.612;7.510;2022-12-29T08:43:06;12.20;1.00
1592;DHT22;789;51.612;7.510;2022-12-29T08:45:33;12.20;1.00
1592;DHT22;789;51.612;7.510;2022-12-29T08:48:00;12.20;1.00
1592;DHT22;789;51.612;7.510;2022-12-29T08:50:27;12.20;1.00
1592;DHT22;789;51.612;7.510;2022-12-29T08:52:54;12.30;1.00
1592;DHT22;789;51.612;7.510;2022-12-29T08:55:21;12.40;1.00
1592;DHT22;789;51.612;7.510;2022-12-29T08:57:49;12.50;1.00
1592;DHT22;789;51.612;7.510;2022-12-29T09:00:17;12.50;1.00
1592;DHT22;789;51.612;7.510;2022-12-29T09:02:43;12.50;1.00
1592;DHT22;789;51.612;7.510;2022-12-29T09:05:10;12.50;1.00
1592;DHT22;789;51.612;7.510;2022-12-29T09:07:37;12.50;1.00
1592;DHT22;789;51.612;7.510;2022-12-29T09:10:05;12.50;1.00
1592;DHT22;789;51.612;7.510;2022-12-29T09:12:32;12.40;1.00
1592;DHT22;789;51.612;7.510;2022-12-29T09:15:00;12.40;1.00
1592;DHT22;789;51.612;7.510;2022-12-29T09:17:27;12.40;1.00
1592;DHT22;789;51.612;7.510;2022-12-29T09:20:14;12.40;1.00
1592;DHT22;789;51.612;7.510;2022-12-29T09:22:41;12.40;1.00
1592;DHT22;789;51.612;7.510;2022-12-29T09:25:09;12.40;1.00
1592;DHT22;789;51.612;7.510;2022-12-29T09:27:36;12.40;1.00
1592;DHT22;789;51.612;7.510;2022-12-29T09:30:06;12.40;1.00
1592;DHT22;789;51.612;7.510;2022-12-29T09:32:33;13.00;1.00
1592;DHT22;789;51.612;7.510;2022-12-29T09:35:00;14.10;1.00
1592;DHT22;789;51.612;7.510;2022-12-29T09:37:27;15.40;1.00
1592;DHT22;789;51.612;7.510;2022-12-29T09:39:54;16.60;1.00
1592;DHT22;789;51.612;7.510;2022-12-29T09:42:25;17.70;1.00
1592;DHT22;789;51.612;7.510;2022-12-29T09:45:05;18.30;1.00
1592;DHT22;789;51.612;7.510;2022-12-29T09:47:34;18.50;1.00
1592;DHT22;789;51.612;7.510;2022-12-29T09:50:03;18.50;1.00
1592;DHT22;789;51.612;7.510;2022-12-29T09:52:34;18.30;1.00
1592;DHT22;789;51.612;7.510;2022-12-29T09:55:04;18.50;1.00
1592;DHT22;789;51.612;7.510;2022-12-29T09:57:38;18.50;1.00
1592;DHT22;789;51.612;7.510;2022-12-29T10:00:13;18.30;1.00
1592;DHT22;789;51.612;7.510;2022-12-29T10:02:43;17.60;1.00
1592;DHT22;789;51.612;7.510;2022-12-29T10:05:21;16.90;1.00
1592;DHT22;789;51.612;7.510;2022-12-29T10:08:00;16.20;1.00
1592;DHT22;789;51.612;7.510;2022-12-29T10:10:35;15.70;1.00
1592;DHT22;789;51.612;7.510;2022-12-29T10:13:21;15.00;1.00
1592;DHT22;789;51.612;7.510;2022-12-29T10:15:59;14.50;1.00
1592;DHT22;789;51.612;7.510;2022-12-29T10:18:40;14.30;1.00
1592;DHT22;789;51.612;7.510;2022-12-29T10:21:17;14.00;1.00
1592;DHT22;789;51.612;7.510;2022-12-29T10:23:51;13.70;1.00
1592;DHT22;789;51.612;7.510;2022-12-29T10:26:20;13.50;1.00
1592;DHT22;789;51.612;7.510;2022-12-29T10:28:50;13.30;1.00
1592;DHT22;789;51.612;7.510;2022-12-29T10:31:22;13.20;1.00
1592;DHT22;789;51.612;7.510;2022-12-29T10:33:51;13.20;1.00
1592;DHT22;789;51.612;7.510;2022-12-29T10:36:27;13.10;1.00
1592;DHT22;789;51.612;7.510;2022-12-29T10:39:04;13.00;1.00
1592;DHT22;789;51.612;7.510;2022-12-29T10:41:38;12.90;1.00
1592;DHT22;789;51.612;7.510;2022-12-29T10:44:08;12.80;1.00
1592;DHT22;789;51.612;7.510;2022-12-29T10:46:37;12.80;1.00
1592;DHT22;789;51.612;7.510;2022-12-29T10:49:04;13.00;1.00
1592;DHT22;789;51.612;7.510;2022-12-29T10:51:36;13.30;1.00
1592;DHT22;789;51.612;7.510;2022-12-29T10:54:10;13.60;1.00
1592;DHT22;789;51.612;7.510;2022-12-29T10:56:40;13.80;1.00
1592;DHT22;789;51.612;7.510;2022-12-29T10:59:14;13.90;1.00
1592;DHT22;789;51.612;7.510;2022-12-29T11:01:50;13.70;1.00
1592;DHT22;789;51.612;7.510;2022-12-29T11:04:35;13.50;1.00
1592;DHT22;789;51.612;7.510;2022-12-29T11:07:07;13.30;1.00
1592;DHT22;789;51.612;7.510;2022-12-29T11:09:36;13.20;1.00
1592;DHT22;789;51.612;7.510;2022-12-29T11:12:19;13.10;1.00
1592;DHT22;789;51.612;7.510;2022-12-29T11:14:46;13.00;1.00
1592;DHT22;789;51.612;7.510;2022-12-29T11:17:16;12.90;1.00
1592;DHT22;789;51.612;7.510;2022-12-29T11:19:43;12.80;1.00
1592;DHT22;789;51.612;7.510;2022-12-29T11:22:19;12.70;1.00
1592;DHT22;789;51.612;7.510;2022-12-29T11:24:48;12.70;1.00
1592;DHT22;789;51.612;7.510;2022-12-29T11:27:17;12.70;1.00
1592;DHT22;789;51.612;7.510;2022-12-29T11:29:44;12.60;1.00
1592;DHT22;789;51.612;7.510;2022-12-29T11:32:12;12.60;1.00
1592;DHT22;789;51.612;7.510;2022-12-29T11:34:41;12.60;1.00
1592;DHT22;789;51.612;7.510;2022-12-29T11:37:12;12.60;1.00
1592;DHT22;789;51.612;7.510;2022-12-29T11:39:43;12.60;1.00
1592;DHT22;789;51.612;7.510;2022-12-29T11:42:14;12.60;1.00
1592;DHT22;789;51.612;7.510;2022-12-29T11:44:44;12.60;1.00
1592;DHT22;789;51.612;7.510;2022-12-29T11:47:19;12.50;1.00
1592;DHT22;789;51.612;7.510;2022-12-29T11:49:53;12.50;1.00
1592;DHT22;789;51.612;7.510;2022-12-29T11:52:23;12.50;1.00
1592;DHT22;789;51.612;7.510;2022-12-29T11:54:51;12.50;1.00
1592;DHT22;789;51.612;7.510;2022-12-29T11:57:18;12.50;1.00
1592;DHT22;789;51.612;7.510;2022-12-29T11:59:50;12.40;1.00
1592;DHT22;789;51.612;7.510;2022-12-29T12:02:40;12.40;1.00
1592;DHT22;789;51.612;7.510;2022-12-29T12:05:22;12.50;1.00
1592;DHT22;789;51.612;7.510;2022-12-29T12:07:56;12.50;1.00
1592;DHT22;789;51.612;7.510;2022-12-29T12:10:27;12.60;1.00
1592;DHT22;789;51.612;7.510;2022-12-29T12:13:08;12.60;1.00
1592;DHT22;789;51.612;7.510;2022-12-29T12:15:46;12.60;1.00
1592;DHT22;789;51.612;7.510;2022-12-29T12:18:18;12.60;1.00
1592;DHT22;789;51.612;7.510;2022-12-29T12:20:52;12.60;1.00
1592;DHT22;789;51.612;7.510;2022-12-29T12:23:28;12.60;1.00
1592;DHT22;789;51.612;7.510;2022-12-29T12:26:02;12.60;1.00
1592;DHT22;789;51.612;7.510;2022-12-29T12:28:37;12.50;1.00
1592;DHT22;789;51.612;7.510;2022-12-29T12:31:16;12.60;1.00
1592;DHT22;789;51.612;7.510;2022-12-29T12:33:47;12.60;1.00
1592;DHT22;789;51.612;7.510;2022-12-29T12:36:39;12.70;1.00
1592;DHT22;789;51.612;7.510;2022-12-29T12:39:12;12.70;1.00
1592;DHT22;789;51.612;7.510;2022-12-29T12:41:48;12.70;1.00
1592;DHT22;789;51.612;7.510;2022-12-29T12:44:22;12.60;1.00
1592;DHT22;789;51.612;7.510;2022-12-29T12:47:02;12.60;1.00
1592;DHT22;789;51.612;7.510;2022-12-29T12:52:57;12.60;1.00
1592;DHT22;789;51.612;7.510;2022-12-29T12:55:37;12.60;1.00
1592;DHT22;789;51.612;7.510;2022-12-29T12:58:13;12.60;1.00
1592;DHT22;789;51.612;7.510;2022-12-29T13:00:53;12.60;1.00
1592;DHT22;789;51.612;7.510;2022-12-29T13:03:28;12.50;1.00
1592;DHT22;789;51.612;7.510;2022-12-29T13:06:09;12.40;1.00
1592;DHT22;789;51.612;7.510;2022-12-29T13:08:53;12.50;1.00
1592;DHT22;789;51.612;7.510;2022-12-29T13:11:28;12.50;1.00
1592;DHT22;789;51.612;7.510;2022-12-29T13:17:04;12.50;1.00
1592;DHT22;789;51.612;7.510;2022-12-29T13:19:37;12.40;1.00
1592;DHT22;789;51.612;7.510;2022-12-29T13:22:11;12.40;1.00
1592;DHT22;789;51.612;7.510;2022-12-29T13:24:49;12.40;1.00
1592;DHT22;789;51.612;7.510;2022-12-29T13:27:21;12.40;1.00
1592;DHT22;789;51.612;7.510;2022-12-29T13:29:56;12.40;1.00
1592;DHT22;789;51.612;7.510;2022-12-29T13:32:34;12.40;1.00
1592;DHT22;789;51.612;7.510;2022-12-29T13:35:22;12.40;1.00
1592;DHT22;789;51.612;7.510;2022-12-29T13:37:58;12.30;1.00
1592;DHT22;789;51.612;7.510;2022-12-29T13:40:32;12.30;1.00
1592;DHT22;789;51.612;7.510;2022-12-29T13:43:01;12.20;1.00
1592;DHT22;789;51.612;7.510;2022-12-29T13:45:30;12.30;1.00
1592;DHT22;789;51.612;7.510;2022-12-29T13:48:04;12.20;1.00
1592;DHT22;789;51.612;7.510;2022-12-29T13:50:35;12.30;1.00
1592;DHT22;789;51.612;7.510;2022-12-29T13:53:08;12.30;1.00
1592;DHT22;789;51.612;7.510;2022-12-29T13:55:44;12.20;1.00
1592;DHT22;789;51.612;7.510;2022-12-29T13:58:17;12.30;1.00
1592;DHT22;789;51.612;7.510;2022-12-29T14:00:53;12.30;1.00
1592;DHT22;789;51.612;7.510;2022-12-29T14:03:46;12.40;1.00
1592;DHT22;789;51.612;7.510;2022-12-29T14:06:19;12.40;1.00
1592;DHT22;789;51.612;7.510;2022-12-29T14:08:47;12.40;1.00
1592;DHT22;789;51.612;7.510;2022-12-29T14:11:17;12.20;1.00
1592;DHT22;789;51.612;7.510;2022-12-29T14:13:46;12.10;1.00
1592;DHT22;789;51.612;7.510;2022-12-29T14:16:25;12.10;1.00
1592;DHT22;789;51.612;7.510;2022-12-29T14:18:53;12.10;1.00
1592;DHT22;789;51.612;7.510;2022-12-29T14:21:23;12.00;1.00
1592;DHT22;789;51.612;7.510;2022-12-29T14:23:53;12.10;1.00
1592;DHT22;789;51.612;7.510;2022-12-29T14:26:35;12.00;1.00
1592;DHT22;789;51.612;7.510;2022-12-29T14:29:44;12.00;1.00
1592;DHT22;789;51.612;7.510;2022-12-29T14:32:36;11.90;1.00
1592;DHT22;789;51.612;7.510;2022-12-29T14:38:17;11.90;1.00
1592;DHT22;789;51.612;7.510;2022-12-29T14:40:46;11.90;1.00
1592;DHT22;789;51.612;7.510;2022-12-29T14:43:23;11.90;1.00
1592;DHT22;789;51.612;7.510;2022-12-29T14:45:56;11.90;1.00
1592;DHT22;789;51.612;7.510;2022-12-29T14:48:36;11.90;1.00
1592;DHT22;789;51.612;7.510;2022-12-29T14:51:20;11.90;1.00
1592;DHT22;789;51.612;7.510;2022-12-29T14:53:52;11.90;1.00
1592;DHT22;789;51.612;7.510;2022-12-29T14:56:23;12.00;1.00
1592;DHT22;789;51.612;7.510;2022-12-29T14:58:53;11.90;1.00
1592;DHT22;789;51.612;7.510;2022-12-29T15:01:26;11.90;1.00
1592;DHT22;789;51.612;7.510;2022-12-29T15:03:55;12.00;1.00
1592;DHT22;789;51.612;7.510;2022-12-29T15:06:25;12.00;1.00
1592;DHT22;789;51.612;7.510;2022-12-29T15:08:59;12.00;1.00
1592;DHT22;789;51.612;7.510;2022-12-29T15:11:41;12.00;1.00
1592;DHT22;789;51.612;7.510;2022-12-29T15:14:28;11.90;1.00
1592;DHT22;789;51.612;7.510;2022-12-29T15:16:55;12.00;1.00
1592;DHT22;789;51.612;7.510;2022-12-29T15:19:23;11.90;1.00
1592;DHT22;789;51.612;7.510;2022-12-29T15:21:50;11.90;1.00
1592;DHT22;789;51.612;7.510;2022-12-29T15:24:17;11.90;1.00
1592;DHT22;789;51.612;7.510;2022-12-29T15:26:46;11.90;1.00
1592;DHT22;789;51.612;7.510;2022-12-29T15:29:30;11.90;1.00
1592;DHT22;789;51.612;7.510;2022-12-29T15:31:59;11.90;1.00
1592;DHT22;789;51.612;7.510;2022-12-29T15:34:29;11.90;1.00
1592;DHT22;789;51.612;7.510;2022-12-29T15:36:56;11.90;1.00
1592;DHT22;789;51.612;7.510;2022-12-29T15:39:29;11.90;1.00
1592;DHT22;789;51.612;7.510;2022-12-29T15:41:58;11.80;1.00
1592;DHT22;789;51.612;7.510;2022-12-29T15:44:34;11.80;1.00
1592;DHT22;789;51.612;7.510;2022-12-29T15:47:04;11.80;1.00
1592;DHT22;789;51.612;7.510;2022-12-29T15:49:32;11.80;1.00
1592;DHT22;789;51.612;7.510;2022-12-29T15:51:59;11.80;1.00
1592;DHT22;789;51.612;7.510;2022-12-29T15:54:29;11.80;1.00
1592;DHT22;789;51.612;7.510;2022-12-29T15:56:57;11.70;1.00
1592;DHT22;789;51.612;7.510;2022-12-29T15:59:26;11.70;1.00
1592;DHT22;789;51.612;7.510;2022-12-29T16:01:54;11.80;1.00
1592;DHT22;789;51.612;7.510;2022-12-29T16:04:22;11.70;1.00
1592;DHT22;789;51.612;7.510;2022-12-29T16:06:56;11.70;1.00
1592;DHT22;789;51.612;7.510;2022-12-29T16:09:29;11.70;1.00
1592;DHT22;789;51.612;7.510;2022-12-29T16:11:59;11.70;1.00
1592;DHT22;789;51.612;7.510;2022-12-29T16:14:32;11.60;1.00
1592;DHT22;789;51.612;7.510;2022-12-29T16:17:03;11.60;1.00
1592;DHT22;789;51.612;7.510;2022-12-29T16:19:33;11.60;1.00
1592;DHT22;789;51.612;7.510;2022-12-29T16:22:01;11.70;1.00
1592;DHT22;789;51.612;7.510;2022-12-29T16:24:31;11.70;1.00
1592;DHT22;789;51.612;7.510;2022-12-29T16:27:02;11.60;1.00
1592;DHT22;789;51.612;7.510;2022-12-29T16:29:33;11.60;1.00
1592;DHT22;789;51.612;7.510;2022-12-29T16:32:02;11.60;1.00
1592;DHT22;789;51.612;7.510;2022-12-29T16:34:30;11.60;1.00
1592;DHT22;789;51.612;7.510;2022-12-29T16:36:58;11.60;1.00
1592;DHT22;789;51.612;7.510;2022-12-29T16:39:31;11.60;1.00
1592;DHT22;789;51.612;7.510;2022-12-29T16:41:59;11.60;1.00
1592;DHT22;789;51.612;7.510;2022-12-29T16:44:27;11.50;1.00
1592;DHT22;789;51.612;7.510;2022-12-29T16:47:03;11.50;1.00
1592;DHT22;789;51.612;7.510;2022-12-29T16:49:31;11.50;1.00
1592;DHT22;789;51.612;7.510;2022-12-29T16:51:59;11.50;1.00
1592;DHT22;789;51.612;7.510;2022-12-29T16:54:32;11.50;1.00
1592;DHT22;789;51.612;7.510;2022-12-29T16:57:00;11.50;1.00
1592;DHT22;789;51.612;7.510;2022-12-29T16:59:31;11.40;1.00
1592;DHT22;789;51.612;7.510;2022-12-29T17:02:00;11.40;1.00
1592;DHT22;789;51.612;7.510;2022-12-29T17:04:30;11.40;1.00
1592;DHT22;789;51.612;7.510;2022-12-29T17:06:57;11.40;1.00
1592;DHT22;789;51.612;7.510;2022-12-29T17:09:25;11.30;1.00
1592;DHT22;789;51.612;7.510;2022-12-29T17:11:54;11.20;1.00
1592;DHT22;789;51.612;7.510;2022-12-29T17:14:36;11.20;1.00